New Shoreham, Rhode Island
Current Conditions -  °F | °C
As of 6:15 AM on Sunday 21 Dec 2014 (Local Time) from KBID Reporting Station
Overcast Overcast  
Wind Chill:   Ceiling: 800
Heat Index:   Visibility: 10mi
Dew Point:   Wind: 10mph
Humidity: 81%   Direction: 50°NE
Pressure: 30.23"   Gusts: 18mph
Location:  41.1768°N, 71.5785°W
Report Text: KBID 211115Z AUTO 05009G16KT 10SM BKN008 OVC015 04/01 A3023 RMK AO1
Loading
Personal Weather Stations






























Interactive Weather Map New forecast layout! Learn more

10-Day Weather Forecast

Advertisements
Track Severe Weather on mobile